Terminal Aerodrome Forecast
Issued by NWS

Home | Current Version | Previous Version | Text Only | Print | Product List | Glossary On
Versions: 1 2 3 4 5 6 7 8 9 10 11 12 13 14 15 16 17 18
000
FTUS46 KSTO 180600 AAA
TAFSMF
TAF AMD
KSMF 180659Z 1807/1906 18007KT P6SM -RA OVC070
      TEMPO 1807/1811 BKN030
     FM181300 15006KT 3SM BR BKN022
     FM181800 16008KT P6SM SCT025 BKN035=

USA.gov is the U.S. government's official web portal to all federal, state and local government web resources and services.